Time;durP1;ratioP1;P1;durP2;ratioP2;P2;SDS_P1;SDS_P2;PMS_P1;PMS_P2;Temp;Humidity;BMP_temperature;BMP_pressure;BME280_temperature;BME280_humidity;BME280_pressure;Samples;Min_cycle;Max_cycle;Signal;HPM_P1;HPM_P2
2021/12/02 00:01:11;;;;;;;25.45;15.38;;;-2.40;80.70;;;;;;5054673;28;20380;-65
2021/12/02 00:03:38;;;;;;;26.33;15.40;;;-2.40;80.50;;;;;;5062566;28;20112;-65
2021/12/02 00:06:09;;;;;;;30.67;18.10;;;-2.40;80.50;;;;;;5053987;28;20072;-64
2021/12/02 00:08:35;;;;;;;28.08;16.80;;;-2.40;80.30;;;;;;5054068;28;20021;-66
2021/12/02 00:11:01;;;;;;;29.50;17.90;;;-2.40;80.20;;;;;;5053926;28;20025;-65
2021/12/02 00:13:29;;;;;;;34.85;19.17;;;-2.40;80.20;;;;;;5053948;28;20036;-65
2021/12/02 00:16:05;;;;;;;36.40;19.13;;;-2.40;80.00;;;;;;5053858;28;20025;-64
2021/12/02 00:21:22;;;;;;;32.05;17.88;;;-2.40;80.20;;;;;;5053761;28;20051;-65
2021/12/02 00:24:01;;;;;;;32.72;17.38;;;-2.50;80.20;;;;;;5053759;28;20025;-65
2021/12/02 00:26:29;;;;;;;26.58;15.80;;;-2.40;80.40;;;;;;5053704;28;20090;-66
2021/12/02 00:28:59;;;;;;;25.67;15.73;;;-2.50;80.40;;;;;;5053587;28;20464;-65
2021/12/02 00:31:30;;;;;;;27.85;16.15;;;-2.50;80.40;;;;;;5052296;28;20143;-65
2021/12/02 00:34:01;;;;;;;25.80;14.88;;;-2.50;80.40;;;;;;5053615;28;20021;-64
2021/12/02 00:36:31;;;;;;;24.52;14.35;;;-2.40;80.40;;;;;;5053665;28;20111;-64
2021/12/02 00:38:57;;;;;;;21.15;13.15;;;-2.40;80.30;;;;;;5053379;28;20057;-64
2021/12/02 00:41:25;;;;;;;19.58;12.77;;;-2.40;80.20;;;;;;5067907;28;20036;-65
2021/12/02 00:43:53;;;;;;;20.38;12.68;;;-2.40;80.00;;;;;;5073265;28;20323;-64
2021/12/02 00:46:22;;;;;;;20.45;12.48;;;-2.30;80.10;;;;;;5073339;28;20021;-65
2021/12/02 00:48:48;;;;;;;20.30;13.10;;;-2.30;80.00;;;;;;5073160;28;20085;-65
2021/12/02 00:51:16;;;;;;;26.85;15.30;;;-2.30;79.90;;;;;;5073063;28;20114;-65
2021/12/02 00:53:46;;;;;;;23.25;14.52;;;-2.30;80.00;;;;;;5071824;28;20069;-65
2021/12/02 00:56:16;;;;;;;24.70;14.30;;;-2.30;80.00;;;;;;5071846;28;20024;-64
2021/12/02 00:58:47;;;;;;;21.33;12.75;;;-2.20;80.00;;;;;;5071897;28;20036;-66
2021/12/02 01:01:15;;;;;;;23.20;12.35;;;-2.20;79.90;;;;;;5073024;28;20383;-65
2021/12/02 01:03:42;;;;;;;19.83;11.30;;;-2.10;79.60;;;;;;5072935;28;20035;-65
2021/12/02 01:06:08;;;;;;;20.15;11.25;;;-2.00;79.10;;;;;;5072791;28;20405;-65
2021/12/02 01:08:35;;;;;;;15.85;9.32;;;-1.90;78.20;;;;;;5071704;28;20099;-65
2021/12/02 01:11:02;;;;;;;14.25;8.20;;;-1.90;78.20;;;;;;5071567;28;20356;-64
2021/12/02 01:13:28;;;;;;;12.48;7.88;;;-1.90;78.40;;;;;;5072847;28;20024;-65
2021/12/02 01:15:54;;;;;;;12.77;8.10;;;-1.80;78.10;;;;;;5072885;28;20021;-65
2021/12/02 01:18:21;;;;;;;13.68;8.90;;;-1.80;77.90;;;;;;5072550;28;20467;-64
2021/12/02 01:20:50;;;;;;;13.48;7.75;;;-1.70;76.60;;;;;;5072600;28;20017;-65
2021/12/02 01:23:17;;;;;;;11.45;6.88;;;-1.60;75.90;;;;;;5072644;28;20091;-64
2021/12/02 01:25:48;;;;;;;11.45;7.32;;;-1.60;75.70;;;;;;5072741;28;20033;-64
2021/12/02 01:28:16;;;;;;;11.98;7.10;;;-1.60;75.90;;;;;;5072912;28;20133;-65
2021/12/02 01:30:41;;;;;;;11.45;6.57;;;-1.60;75.00;;;;;;5072714;28;20025;-64
2021/12/02 01:33:07;;;;;;;13.35;7.38;;;-1.50;74.90;;;;;;5072742;28;20683;-64
2021/12/02 01:35:34;;;;;;;14.00;7.40;;;-1.50;74.80;;;;;;5072394;28;20021;-64
2021/12/02 01:38:01;;;;;;;11.98;6.35;;;-1.40;74.90;;;;;;5072315;28;20029;-65
2021/12/02 01:40:27;;;;;;;11.60;6.35;;;-1.30;73.90;;;;;;5072209;28;20029;-65
2021/12/02 01:42:56;;;;;;;10.77;5.68;;;-1.20;72.80;;;;;;5072222;28;20495;-65
2021/12/02 01:45:26;;;;;;;10.18;5.70;;;-1.20;73.40;;;;;;5072246;28;20394;-64
2021/12/02 01:47:54;;;;;;;9.10;5.30;;;-1.20;72.70;;;;;;5072001;28;20448;-64
2021/12/02 01:50:22;;;;;;;10.45;6.00;;;-1.20;72.70;;;;;;5072260;28;20047;-65
2021/12/02 01:52:54;;;;;;;11.13;6.15;;;-1.10;72.60;;;;;;5072036;28;20025;-65
2021/12/02 01:55:20;;;;;;;21.85;14.80;;;-1.20;73.30;;;;;;5072015;28;20383;-65
2021/12/02 01:58:02;;;;;;;27.15;16.40;;;-1.10;72.90;;;;;;5071922;28;20066;-65
2021/12/02 02:00:33;;;;;;;27.75;16.98;;;-1.10;72.30;;;;;;5072071;28;20472;-64
2021/12/02 02:03:02;;;;;;;34.25;19.13;;;-1.10;72.20;;;;;;5072191;28;20382;-65
2021/12/02 02:05:30;;;;;;;44.50;20.73;;;-1.00;71.90;;;;;;5071873;28;20576;-65
2021/12/02 02:08:05;;;;;;;45.22;22.08;;;-1.00;71.40;;;;;;5071922;28;20060;-65
2021/12/02 02:10:36;;;;;;;46.53;21.30;;;-1.00;71.50;;;;;;5071981;28;20028;-64
2021/12/02 02:13:08;;;;;;;37.03;18.50;;;-1.00;72.10;;;;;;5072150;28;20028;-64
2021/12/02 02:15:34;;;;;;;29.95;15.35;;;-1.00;72.20;;;;;;5071857;28;20017;-64
2021/12/02 02:18:08;;;;;;;27.92;13.80;;;-1.00;72.00;;;;;;5072070;28;20394;-65
2021/12/02 02:20:54;;;;;;;20.88;11.68;;;-1.00;72.60;;;;;;5071878;28;20112;-65
2021/12/02 02:23:19;;;;;;;16.50;9.30;;;-0.90;72.10;;;;;;5071885;28;20483;-64
2021/12/02 02:25:46;;;;;;;16.73;8.85;;;-0.90;72.00;;;;;;5071821;28;20028;-65
2021/12/02 02:28:13;;;;;;;13.35;7.50;;;-0.90;72.10;;;;;;5073880;28;20054;-65
2021/12/02 02:30:40;;;;;;;11.43;6.18;;;-0.90;72.20;;;;;;5051538;28;20018;-65
2021/12/02 02:33:06;;;;;;;11.02;6.03;;;-0.90;71.90;;;;;;5051535;28;20017;-65
2021/12/02 02:35:32;;;;;;;16.67;8.18;;;-0.90;71.90;;;;;;5051653;28;20021;-65
2021/12/02 02:38:00;;;;;;;22.58;10.27;;;-0.80;71.30;;;;;;5051604;28;20037;-64
2021/12/02 02:40:26;;;;;;;31.30;14.55;;;-0.80;70.90;;;;;;5051662;28;20163;-64
2021/12/02 02:42:57;;;;;;;35.75;17.45;;;-0.80;70.50;;;;;;5051569;28;20100;-64
2021/12/02 02:45:23;;;;;;;38.25;18.65;;;-0.80;70.10;;;;;;5051527;28;20032;-65
2021/12/02 02:47:49;;;;;;;44.88;19.92;;;-0.80;70.10;;;;;;5051446;28;20036;-64
2021/12/02 02:50:17;;;;;;;47.75;23.38;;;-0.70;69.60;;;;;;5051503;28;20025;-66
2021/12/02 02:52:44;;;;;;;50.85;23.23;;;-0.70;69.30;;;;;;5051523;28;20021;-64
2021/12/02 02:55:17;;;;;;;44.85;21.67;;;-0.70;69.10;;;;;;5051441;28;20028;-64
2021/12/02 03:00:57;;;;;;;48.47;22.30;;;-0.60;69.70;;;;;;5039219;28;20121;-65
2021/12/02 03:03:55;;;;;;;46.28;22.52;;;-0.60;69.70;;;;;;5051188;28;20112;-64
2021/12/02 03:08:48;;;;;;;39.67;18.63;;;-0.60;69.90;;;;;;5055037;28;20085;-66
2021/12/02 03:11:16;;;;;;;43.30;19.25;;;-0.60;70.40;;;;;;5055352;28;20024;-65
2021/12/02 03:13:50;;;;;;;38.25;19.27;;;-0.60;70.50;;;;;;5055312;28;20020;-65
2021/12/02 03:19:02;;;;;;;40.83;19.70;;;-0.60;70.40;;;;;;5055314;28;20372;-64
2021/12/02 03:21:28;;;;;;;33.83;17.40;;;-0.50;70.10;;;;;;5054858;28;20025;-64
2021/12/02 03:23:59;;;;;;;36.30;17.33;;;-0.50;70.20;;;;;;5054679;28;20025;-64
2021/12/02 03:26:26;;;;;;;30.00;14.43;;;-0.60;70.30;;;;;;5054976;28;20489;-66
2021/12/02 03:28:52;;;;;;;26.10;13.18;;;-0.60;70.50;;;;;;5054969;28;20040;-64
2021/12/02 03:31:19;;;;;;;27.40;13.60;;;-0.50;70.10;;;;;;5054951;28;20079;-65
2021/12/02 03:33:46;;;;;;;26.35;13.02;;;-0.50;70.30;;;;;;5054890;28;20025;-63
2021/12/02 03:36:12;;;;;;;28.63;14.82;;;-0.60;70.70;;;;;;5054808;28;20021;-65
2021/12/02 03:38:38;;;;;;;34.35;15.90;;;-0.50;70.70;;;;;;5054755;28;20415;-65
2021/12/02 03:41:05;;;;;;;28.77;14.63;;;-0.50;70.50;;;;;;5054728;28;20055;-64
2021/12/02 03:43:38;;;;;;;34.25;16.10;;;-0.50;70.60;;;;;;5053701;28;20424;-64
2021/12/02 03:46:05;;;;;;;33.25;15.23;;;-0.40;70.40;;;;;;5054390;28;20067;-64
2021/12/02 03:48:31;;;;;;;28.85;14.23;;;-0.40;70.70;;;;;;5054527;28;20472;-64
2021/12/02 03:50:57;;;;;;;30.88;14.98;;;-0.30;70.60;;;;;;5054488;28;20526;-64
2021/12/02 03:53:23;;;;;;;37.60;16.02;;;-0.30;70.70;;;;;;5054522;28;20104;-64
2021/12/02 03:55:48;;;;;;;35.70;17.98;;;-0.30;70.90;;;;;;5053000;28;20539;-65
2021/12/02 03:58:14;;;;;;;41.67;19.42;;;-0.30;71.00;;;;;;5054251;28;20032;-64
2021/12/02 04:00:40;;;;;;;47.47;21.70;;;-0.20;71.20;;;;;;5054162;28;20516;-64
2021/12/02 04:03:06;;;;;;;47.85;23.13;;;-0.20;71.20;;;;;;5054111;28;20061;-64
2021/12/02 04:05:32;;;;;;;53.70;24.08;;;-0.10;71.30;;;;;;5053805;28;20053;-65
2021/12/02 04:07:58;;;;;;;51.28;24.88;;;-0.10;71.70;;;;;;5053938;28;20025;-64
2021/12/02 04:10:25;;;;;;;57.10;27.15;;;-0.10;71.70;;;;;;5053951;28;20426;-64
2021/12/02 04:15:40;;;;;;;57.00;26.83;;;0.00;72.20;;;;;;5053848;28;20025;-65
2021/12/02 04:18:03;;;;;;;61.38;30.52;;;0.10;72.30;;;;;;5053731;28;20065;-65
2021/12/02 04:20:28;;;;;;;61.97;30.95;;;0.00;72.70;;;;;;5053918;28;20059;-64
2021/12/02 04:22:58;;;;;;;64.03;31.48;;;0.00;72.90;;;;;;5073901;28;20421;-65
2021/12/02 04:25:25;;;;;;;60.30;27.92;;;0.00;73.40;;;;;;5073879;28;20074;-65
2021/12/02 04:27:53;;;;;;;63.95;29.80;;;-0.10;73.60;;;;;;5073789;28;20090;-65
2021/12/02 04:30:25;;;;;;;65.03;32.00;;;0.00;73.80;;;;;;5073730;28;20089;-64
2021/12/02 04:32:51;;;;;;;67.43;32.20;;;0.00;74.10;;;;;;5073740;28;20028;-65
2021/12/02 04:35:17;;;;;;;60.00;28.27;;;0.00;74.50;;;;;;5073643;28;20276;-67
2021/12/02 04:37:44;;;;;;;64.25;30.85;;;0.00;74.80;;;;;;5073450;28;20028;-65
2021/12/02 04:40:11;;;;;;;57.10;29.00;;;0.00;75.10;;;;;;5073489;28;20025;-64
2021/12/02 04:42:37;;;;;;;55.05;25.92;;;0.00;75.50;;;;;;5073607;28;20387;-65
2021/12/02 04:45:04;;;;;;;48.67;24.55;;;0.00;75.70;;;;;;5072163;28;20028;-65
2021/12/02 04:47:30;;;;;;;40.20;20.55;;;0.00;75.90;;;;;;5073570;28;20532;-66
2021/12/02 04:49:55;;;;;;;35.75;20.02;;;0.00;76.20;;;;;;5073422;28;20024;-64
2021/12/02 04:52:21;;;;;;;32.58;19.00;;;0.20;76.30;;;;;;5073368;28;20016;-64
2021/12/02 04:54:46;;;;;;;30.90;18.73;;;0.20;76.30;;;;;;5073317;28;20035;-64
2021/12/02 04:57:12;;;;;;;32.53;19.08;;;0.20;76.30;;;;;;5073214;28;20057;-64
2021/12/02 04:59:38;;;;;;;29.23;18.58;;;0.20;76.40;;;;;;5073359;28;20058;-65
2021/12/02 05:02:04;;;;;;;29.35;19.65;;;0.30;76.50;;;;;;5073013;28;20078;-65
2021/12/02 05:04:29;;;;;;;26.80;17.63;;;0.30;76.50;;;;;;5072941;28;20107;-64
2021/12/02 05:06:55;;;;;;;26.65;17.60;;;0.30;76.70;;;;;;5072700;28;20048;-65
2021/12/02 05:09:21;;;;;;;25.25;15.80;;;0.30;76.60;;;;;;5072763;28;20435;-64
2021/12/02 05:11:46;;;;;;;26.42;15.70;;;0.30;76.60;;;;;;5072748;28;20051;-66
2021/12/02 05:14:12;;;;;;;24.58;15.73;;;0.40;76.50;;;;;;5072874;28;20471;-64
2021/12/02 05:16:39;;;;;;;25.05;15.40;;;0.40;76.40;;;;;;5072696;28;20490;-65
2021/12/02 05:19:05;;;;;;;25.20;16.27;;;0.50;76.40;;;;;;5072528;28;20187;-65
2021/12/02 05:21:31;;;;;;;23.33;14.95;;;0.50;76.20;;;;;;5072352;28;20115;-65
2021/12/02 05:23:57;;;;;;;23.33;15.35;;;0.60;76.20;;;;;;5072329;28;20107;-64
2021/12/02 05:26:24;;;;;;;23.15;14.57;;;0.60;76.10;;;;;;5072231;28;20372;-66
2021/12/02 05:28:51;;;;;;;24.35;15.40;;;0.60;76.10;;;;;;5072143;28;20044;-65
2021/12/02 05:31:18;;;;;;;23.92;14.52;;;0.70;76.10;;;;;;5072175;28;20024;-65
2021/12/02 05:33:44;;;;;;;25.00;15.10;;;0.60;76.10;;;;;;5072463;28;20020;-66
2021/12/02 05:36:09;;;;;;;21.83;14.18;;;0.70;76.10;;;;;;5071299;28;20020;-65
2021/12/02 05:38:35;;;;;;;21.98;14.23;;;0.70;76.10;;;;;;5071158;28;20029;-65
2021/12/02 05:41:02;;;;;;;22.40;14.15;;;0.70;76.10;;;;;;5070999;28;20086;-65
2021/12/02 05:43:28;;;;;;;22.45;14.10;;;0.80;75.60;;;;;;5072146;28;20043;-65
2021/12/02 05:45:54;;;;;;;21.83;13.88;;;1.00;75.20;;;;;;5072117;28;20020;-66
2021/12/02 05:48:20;;;;;;;24.08;14.48;;;1.00;75.00;;;;;;5072195;28;20555;-64
2021/12/02 05:50:46;;;;;;;21.52;13.30;;;1.00;75.20;;;;;;5072140;28;20035;-64
2021/12/02 05:53:11;;;;;;;20.13;12.90;;;1.00;75.30;;;;;;5072328;28;20031;-66
2021/12/02 05:55:37;;;;;;;20.38;13.32;;;1.10;75.20;;;;;;5071993;28;20029;-64
2021/12/02 05:58:03;;;;;;;22.15;13.65;;;1.20;74.90;;;;;;5071699;28;20025;-65
2021/12/02 06:00:29;;;;;;;22.55;13.80;;;1.20;74.90;;;;;;5071987;28;20099;-64
2021/12/02 06:02:54;;;;;;;21.35;14.68;;;1.20;74.90;;;;;;5071935;28;20542;-66
2021/12/02 06:05:20;;;;;;;24.15;15.10;;;1.30;74.70;;;;;;5071786;28;20124;-65
2021/12/02 06:07:52;;;;;;;22.23;14.00;;;1.40;74.60;;;;;;5071894;28;20031;-65
2021/12/02 06:10:18;;;;;;;22.67;13.82;;;1.40;75.10;;;;;;5064840;28;20107;-65
2021/12/02 06:12:45;;;;;;;22.00;13.68;;;1.40;75.00;;;;;;5051701;28;20029;-65
2021/12/02 06:15:11;;;;;;;24.65;13.63;;;1.40;75.00;;;;;;5051907;28;20025;-65
2021/12/02 06:17:37;;;;;;;23.83;14.20;;;1.40;75.20;;;;;;5051808;28;20029;-65
2021/12/02 06:20:06;;;;;;;24.80;13.75;;;1.50;74.70;;;;;;5052759;28;20040;-65
2021/12/02 06:22:33;;;;;;;24.10;14.10;;;1.70;74.20;;;;;;5071171;28;20028;-65
2021/12/02 06:27:53;;;;;;;23.53;14.93;;;1.70;74.50;;;;;;5055510;28;20066;-66
2021/12/02 06:30:22;;;;;;;26.13;14.80;;;1.70;75.30;;;;;;5071546;28;20651;-65
2021/12/02 06:32:48;;;;;;;25.25;14.90;;;1.80;75.00;;;;;;5070321;28;20343;-66
2021/12/02 06:35:13;;;;;;;26.17;15.13;;;1.80;75.00;;;;;;5071462;28;20032;-65
2021/12/02 06:37:40;;;;;;;29.10;15.20;;;1.80;75.20;;;;;;5070573;28;20032;-64
2021/12/02 06:40:07;;;;;;;24.60;15.20;;;2.00;74.70;;;;;;5074498;28;20043;-66
2021/12/02 06:42:33;;;;;;;25.73;14.70;;;1.90;74.80;;;;;;5075897;28;20055;-65
2021/12/02 06:44:59;;;;;;;25.88;16.20;;;2.00;74.70;;;;;;5075893;28;20818;-66
2021/12/02 06:47:30;;;;;;;28.48;15.23;;;2.10;74.50;;;;;;5075518;28;20020;-65
2021/12/02 06:49:59;;;;;;;24.90;14.65;;;2.20;74.10;;;;;;5075559;28;20013;-66
2021/12/02 06:52:27;;;;;;;24.95;14.88;;;2.20;74.20;;;;;;5077431;28;20419;-65
2021/12/02 06:54:56;;;;;;;27.45;17.10;;;2.20;74.30;;;;;;5055490;28;20490;-65
2021/12/02 06:57:23;;;;;;;31.42;17.13;;;2.40;73.90;;;;;;5055270;28;20029;-65
2021/12/02 06:59:49;;;;;;;24.90;14.93;;;2.40;73.70;;;;;;5055233;28;20052;-65
2021/12/02 07:02:15;;;;;;;25.65;14.65;;;2.50;73.30;;;;;;5055174;28;20048;-66
2021/12/02 07:04:40;;;;;;;30.27;17.02;;;2.50;73.20;;;;;;5055023;28;20096;-65
2021/12/02 07:07:06;;;;;;;26.77;15.80;;;2.40;73.50;;;;;;5055412;28;20033;-65
2021/12/02 07:09:32;;;;;;;24.63;15.20;;;2.40;73.70;;;;;;5055182;28;20029;-65
2021/12/02 07:11:58;;;;;;;26.50;15.27;;;2.40;73.90;;;;;;5071036;28;20051;-66
2021/12/02 07:14:25;;;;;;;25.70;15.73;;;2.20;74.70;;;;;;5055376;28;20456;-69
2021/12/02 07:16:51;;;;;;;29.30;15.65;;;2.20;75.10;;;;;;5055321;28;20534;-65
2021/12/02 07:19:17;;;;;;;26.30;16.00;;;2.20;75.30;;;;;;5055357;28;20735;-65
2021/12/02 07:21:44;;;;;;;28.52;16.70;;;2.30;75.10;;;;;;5053569;28;20025;-64
2021/12/02 07:24:14;;;;;;;28.05;16.63;;;2.30;75.40;;;;;;5054973;28;20369;-66
2021/12/02 07:26:42;;;;;;;27.38;16.95;;;2.30;75.70;;;;;;5054817;28;20108;-66
2021/12/02 07:29:09;;;;;;;25.25;15.52;;;2.30;76.10;;;;;;5061278;28;20028;-65
2021/12/02 07:31:35;;;;;;;27.67;15.13;;;2.20;76.20;;;;;;5074439;28;20024;-65
2021/12/02 07:34:02;;;;;;;25.20;15.48;;;2.30;76.20;;;;;;5074724;28;20047;-65
2021/12/02 07:36:29;;;;;;;23.38;15.30;;;2.30;76.40;;;;;;5074575;28;20044;-64
2021/12/02 07:38:55;;;;;;;23.20;15.13;;;2.30;76.40;;;;;;5074389;28;20390;-65
2021/12/02 07:41:21;;;;;;;26.90;15.00;;;2.30;76.60;;;;;;5074609;28;20029;-65
2021/12/02 07:43:47;;;;;;;22.20;14.75;;;2.40;76.70;;;;;;5074885;28;20092;-64
2021/12/02 07:46:13;;;;;;;26.63;15.88;;;2.40;76.70;;;;;;5074536;28;20423;-65
2021/12/02 07:48:39;;;;;;;25.13;14.70;;;2.40;77.10;;;;;;5074377;28;20033;-65
2021/12/02 07:51:17;;;;;;;23.15;14.23;;;2.40;77.40;;;;;;5073910;28;20029;-66
2021/12/02 07:53:44;;;;;;;22.50;13.80;;;2.40;77.30;;;;;;5074252;28;20024;-66
2021/12/02 07:56:12;;;;;;;22.38;13.73;;;2.50;77.60;;;;;;5074457;28;20333;-65
2021/12/02 07:58:44;;;;;;;22.40;13.15;;;2.60;77.40;;;;;;5074267;28;20028;-66
2021/12/02 08:01:11;;;;;;;20.05;13.07;;;2.60;77.50;;;;;;5074188;28;20048;-66
2021/12/02 08:03:43;;;;;;;23.30;13.85;;;2.70;77.30;;;;;;5074172;28;20021;-65
2021/12/02 08:06:11;;;;;;;19.93;13.00;;;2.70;77.60;;;;;;5074078;28;20053;-66
2021/12/02 08:08:37;;;;;;;22.30;12.77;;;2.70;78.10;;;;;;5072580;28;20273;-65
2021/12/02 08:11:03;;;;;;;21.48;12.93;;;2.80;77.60;;;;;;5073825;28;20043;-66
2021/12/02 08:13:30;;;;;;;24.27;14.38;;;2.80;77.70;;;;;;5069156;28;20025;-65
2021/12/02 08:15:56;;;;;;;22.52;14.20;;;2.80;77.80;;;;;;5061659;28;20429;-65
2021/12/02 08:18:22;;;;;;;23.60;14.23;;;2.90;78.10;;;;;;5073445;28;20032;-67
2021/12/02 08:20:48;;;;;;;26.17;15.68;;;3.00;77.80;;;;;;5061817;28;20028;-64
2021/12/02 08:23:14;;;;;;;22.80;14.40;;;3.00;78.00;;;;;;5063575;28;20119;-65
2021/12/02 08:25:39;;;;;;;22.77;14.10;;;3.00;78.30;;;;;;5069529;28;20025;-65
2021/12/02 08:28:05;;;;;;;22.45;13.90;;;3.00;78.40;;;;;;5073326;28;20025;-66
2021/12/02 08:30:33;;;;;;;21.95;13.68;;;3.00;78.60;;;;;;5064942;28;20112;-66
2021/12/02 08:33:00;;;;;;;23.13;13.27;;;3.00;78.90;;;;;;5068464;28;20554;-66
2021/12/02 08:35:27;;;;;;;20.48;13.45;;;3.10;79.30;;;;;;5073489;28;20033;-65
2021/12/02 08:37:54;;;;;;;21.65;12.90;;;3.20;79.20;;;;;;5071305;28;20415;-65
2021/12/02 08:40:32;;;;;;;20.88;12.38;;;3.10;79.40;;;;;;5071366;28;20139;-66
2021/12/02 08:43:00;;;;;;;20.48;11.73;;;3.20;79.40;;;;;;5067394;28;20116;-65
2021/12/02 08:45:27;;;;;;;22.95;12.60;;;3.20;79.50;;;;;;5056611;28;20513;-66
2021/12/02 08:47:54;;;;;;;21.27;12.98;;;3.30;79.50;;;;;;5061927;28;20037;-66
2021/12/02 08:50:21;;;;;;;21.25;13.38;;;3.30;79.70;;;;;;5063211;28;20033;-66
2021/12/02 08:52:48;;;;;;;21.85;13.30;;;3.40;79.40;;;;;;5065916;28;20024;-70
2021/12/02 08:55:16;;;;;;;19.90;12.77;;;3.30;79.70;;;;;;5064483;28;20027;-70
2021/12/02 08:57:41;;;;;;;23.45;14.25;;;3.40;79.40;;;;;;5066399;28;20030;-72
2021/12/02 09:00:10;;;;;;;22.92;13.73;;;3.50;79.40;;;;;;5073901;28;20107;-70
2021/12/02 09:02:36;;;;;;;23.88;13.82;;;3.40;79.60;;;;;;5054122;28;20032;-71
2021/12/02 09:05:03;;;;;;;20.45;12.38;;;3.40;79.90;;;;;;5066693;28;20052;-70
2021/12/02 09:07:29;;;;;;;21.30;12.25;;;3.50;80.00;;;;;;5059005;28;20070;-71
2021/12/02 09:09:55;;;;;;;19.98;12.10;;;3.50;80.10;;;;;;5069995;28;20025;-71
2021/12/02 09:12:21;;;;;;;20.80;12.43;;;3.50;80.10;;;;;;5052974;28;20104;-71
2021/12/02 09:14:47;;;;;;;23.35;13.50;;;3.50;80.20;;;;;;5059055;28;20718;-69
2021/12/02 09:17:12;;;;;;;23.88;13.93;;;3.60;80.40;;;;;;5072126;28;20031;-70
2021/12/02 09:19:38;;;;;;;22.83;13.73;;;3.70;80.30;;;;;;5068953;28;20119;-71
2021/12/02 09:22:03;;;;;;;24.02;12.93;;;3.60;80.40;;;;;;5072992;28;20032;-72
2021/12/02 09:24:29;;;;;;;21.55;12.40;;;3.70;80.40;;;;;;5072957;28;20021;-73
2021/12/02 09:26:55;;;;;;;20.42;13.15;;;3.70;80.50;;;;;;5072837;28;20029;-70
2021/12/02 09:29:22;;;;;;;20.38;12.65;;;3.70;80.90;;;;;;5072892;28;20031;-71
2021/12/02 09:31:49;;;;;;;22.02;13.40;;;3.70;80.70;;;;;;5072661;28;20029;-72
2021/12/02 09:34:16;;;;;;;21.52;14.02;;;3.70;80.90;;;;;;5071431;28;20451;-71
2021/12/02 09:36:42;;;;;;;21.60;14.18;;;3.70;81.10;;;;;;5072773;28;20028;-71
2021/12/02 09:39:11;;;;;;;23.33;15.55;;;3.70;81.60;;;;;;5072544;28;20020;-72
2021/12/02 09:41:38;;;;;;;22.60;13.82;;;3.70;81.80;;;;;;5072844;28;20419;-71
2021/12/02 09:44:04;;;;;;;21.13;13.23;;;3.70;81.70;;;;;;5072920;28;20035;-72
2021/12/02 09:46:30;;;;;;;22.25;14.20;;;3.60;81.90;;;;;;5072372;28;20021;-71
2021/12/02 09:49:00;;;;;;;23.15;15.05;;;3.60;82.30;;;;;;5071711;28;20410;-71
2021/12/02 09:51:30;;;;;;;25.95;16.23;;;3.70;82.30;;;;;;5072154;28;20391;-71
2021/12/02 09:54:00;;;;;;;23.90;14.40;;;3.60;82.60;;;;;;5071587;28;20021;-71
2021/12/02 09:56:32;;;;;;;24.88;14.60;;;3.70;82.70;;;;;;5072529;28;20020;-71
2021/12/02 09:59:06;;;;;;;24.33;13.23;;;3.70;82.50;;;;;;5072650;28;20052;-70
2021/12/02 10:01:41;;;;;;;24.33;13.85;;;3.80;82.60;;;;;;5072775;28;20056;-70
2021/12/02 10:04:09;;;;;;;23.23;13.48;;;3.80;82.50;;;;;;5072530;28;20379;-70
2021/12/02 10:06:34;;;;;;;22.40;13.27;;;3.80;82.60;;;;;;5073187;28;20076;-70
2021/12/02 10:09:19;;;;;;;22.95;13.30;;;3.80;82.60;;;;;;5075717;28;20087;-70
2021/12/02 10:12:00;;;;;;;22.55;14.05;;;3.90;82.70;;;;;;5076472;28;20016;-71
2021/12/02 10:14:37;;;;;;;20.25;13.13;;;3.90;82.90;;;;;;5075318;28;20035;-72
2021/12/02 10:17:26;;;;;;;21.38;12.40;;;4.00;82.60;;;;;;5074192;28;20479;-72
2021/12/02 10:19:59;;;;;;;22.38;12.98;;;4.10;82.40;;;;;;5072434;28;20048;-71
2021/12/02 10:22:25;;;;;;;22.25;12.35;;;4.30;81.40;;;;;;5073534;28;20375;-71
2021/12/02 10:24:50;;;;;;;24.35;14.18;;;4.40;81.40;;;;;;5072994;28;20025;-70
2021/12/02 10:27:16;;;;;;;23.15;13.25;;;4.60;80.80;;;;;;5073202;28;20427;-71
2021/12/02 10:29:46;;;;;;;22.45;13.80;;;4.70;80.30;;;;;;5073601;28;20119;-71
2021/12/02 10:32:19;;;;;;;23.58;13.90;;;5.00;79.30;;;;;;5072670;28;20033;-70
2021/12/02 10:34:52;;;;;;;21.65;12.77;;;5.00;80.20;;;;;;5071934;28;20048;-72
2021/12/02 10:37:20;;;;;;;20.45;12.60;;;5.20;79.10;;;;;;5072918;28;20021;-72
2021/12/02 10:39:57;;;;;;;17.77;11.82;;;5.50;79.00;;;;;;5072971;28;20078;-70
2021/12/02 10:42:24;;;;;;;20.58;12.60;;;5.80;76.90;;;;;;5072351;28;20074;-72
2021/12/02 10:44:50;;;;;;;18.85;12.35;;;6.00;75.90;;;;;;5071634;28;20031;-70
2021/12/02 10:47:16;;;;;;;16.98;11.60;;;6.40;77.80;;;;;;5072026;28;20025;-72
2021/12/02 10:49:57;;;;;;;17.65;11.50;;;7.30;73.70;;;;;;5071778;28;20033;-71
2021/12/02 10:52:30;;;;;;;19.13;12.43;;;8.30;68.10;;;;;;5071775;28;20380;-72
2021/12/02 10:54:58;;;;;;;19.42;11.35;;;8.60;68.80;;;;;;5071349;28;20020;-72
2021/12/02 10:57:26;;;;;;;15.45;10.65;;;9.20;66.70;;;;;;5071484;28;20668;-71
2021/12/02 11:00:03;;;;;;;14.73;10.23;;;9.80;64.00;;;;;;5071271;28;20025;-72
2021/12/02 11:02:42;;;;;;;15.98;10.73;;;10.20;63.50;;;;;;5071437;28;20024;-71
2021/12/02 11:05:18;;;;;;;15.75;11.18;;;10.40;61.30;;;;;;5071307;28;20090;-72
2021/12/02 11:07:50;;;;;;;16.90;11.50;;;10.20;61.80;;;;;;5071270;28;20028;-72
2021/12/02 11:10:16;;;;;;;14.95;10.60;;;9.90;62.50;;;;;;5071509;28;20052;-72
2021/12/02 11:12:44;;;;;;;15.98;10.48;;;9.90;62.10;;;;;;5070061;28;20059;-70
2021/12/02 11:15:16;;;;;;;15.73;11.05;;;9.70;62.70;;;;;;5070234;28;20052;-72
2021/12/02 11:18:04;;;;;;;17.45;11.60;;;9.50;62.70;;;;;;5071315;28;20479;-71
2021/12/02 11:20:32;;;;;;;18.13;11.38;;;9.20;63.50;;;;;;5071926;28;20021;-73
2021/12/02 11:23:01;;;;;;;18.95;12.55;;;8.80;64.80;;;;;;5072344;28;20472;-71
2021/12/02 11:25:29;;;;;;;17.40;11.90;;;8.90;65.90;;;;;;5072803;28;20468;-71
2021/12/02 11:27:55;;;;;;;16.75;11.30;;;9.40;64.60;;;;;;5074711;28;20074;-73
2021/12/02 11:30:26;;;;;;;17.70;11.10;;;9.70;63.80;;;;;;5074856;28;20021;-71
2021/12/02 11:33:03;;;;;;;15.68;10.68;;;10.30;63.30;;;;;;5074878;28;20017;-71
2021/12/02 11:35:35;;;;;;;18.38;11.82;;;10.80;60.70;;;;;;5075293;28;20035;-73
2021/12/02 11:38:17;;;;;;;18.90;11.32;;;10.50;60.70;;;;;;5074682;28;20388;-70
2021/12/02 11:40:49;;;;;;;16.77;11.82;;;10.00;61.90;;;;;;5074640;28;20029;-71
2021/12/02 11:43:19;;;;;;;20.58;14.07;;;10.00;63.40;;;;;;5074265;28;20031;-71
2021/12/02 11:45:48;;;;;;;20.83;13.20;;;10.20;62.10;;;;;;5074583;28;20089;-72
2021/12/02 11:48:19;;;;;;;19.65;12.65;;;9.80;62.80;;;;;;5074208;28;20048;-73
2021/12/02 11:50:47;;;;;;;16.42;11.40;;;9.50;63.20;;;;;;5073972;28;20086;-71
2021/12/02 11:53:14;;;;;;;19.30;12.20;;;9.00;64.70;;;;;;5073698;28;20024;-71
2021/12/02 11:55:42;;;;;;;16.02;10.55;;;8.70;66.10;;;;;;5074711;28;20047;-72
2021/12/02 11:58:09;;;;;;;15.07;10.45;;;8.60;67.10;;;;;;5073953;28;20039;-70
2021/12/02 12:00:37;;;;;;;12.65;9.02;;;8.70;66.80;;;;;;5073584;28;20020;-71
2021/12/02 12:03:27;;;;;;;13.25;9.30;;;8.50;67.10;;;;;;5073660;28;20052;-72
2021/12/02 12:06:08;;;;;;;13.82;9.95;;;8.40;67.30;;;;;;5071918;28;20044;-71
2021/12/02 12:08:40;;;;;;;14.35;9.73;;;8.40;68.10;;;;;;5073573;28;20040;-70
2021/12/02 12:11:18;;;;;;;15.57;9.75;;;8.40;68.30;;;;;;5072746;28;20024;-71
2021/12/02 12:13:49;;;;;;;14.27;9.65;;;8.40;68.20;;;;;;5074041;28;20055;-72
2021/12/02 12:16:20;;;;;;;14.57;10.25;;;8.40;68.20;;;;;;5074101;28;20421;-72
2021/12/02 12:18:47;;;;;;;18.80;12.38;;;8.10;68.90;;;;;;5073854;28;20310;-71
2021/12/02 12:21:13;;;;;;;17.80;12.10;;;7.90;70.00;;;;;;5073909;28;20383;-72
2021/12/02 12:23:41;;;;;;;21.20;12.90;;;7.70;70.70;;;;;;5073980;28;20027;-71
2021/12/02 12:26:12;;;;;;;19.85;12.70;;;7.60;71.20;;;;;;5073532;28;20379;-71
2021/12/02 12:29:13;;;;;;;19.63;12.02;;;7.40;71.80;;;;;;5073781;28;20055;-72
2021/12/02 12:34:34;;;;;;;16.98;11.32;;;7.20;73.00;;;;;;5075130;28;20025;-71
2021/12/02 12:37:01;;;;;;;;;;;7.10;73.40;;;;;;5072793;28;20021;-72
2021/12/02 12:39:32;;;;;;;17.55;10.45;;;7.10;73.40;;;;;;5072528;28;19904;-71
2021/12/02 12:42:15;;;;;;;15.50;10.65;;;7.10;73.80;;;;;;5073702;28;20033;-72
2021/12/02 12:44:48;;;;;;;16.15;10.05;;;7.00;74.20;;;;;;5073532;28;20138;-72
2021/12/02 12:47:15;;;;;;;17.00;10.38;;;7.10;74.40;;;;;;5075076;28;20051;-71
2021/12/02 12:49:40;;;;;;;17.30;11.32;;;7.10;74.30;;;;;;5073578;28;20750;-72
2021/12/02 12:52:18;;;;;;;17.83;10.82;;;7.20;74.30;;;;;;5071634;28;20024;-71
2021/12/02 12:55:18;;;;;;;21.45;12.98;;;7.00;74.90;;;;;;5074298;28;20070;-71
2021/12/02 12:58:20;;;;;;;20.52;12.57;;;6.90;75.10;;;;;;5073435;28;20830;-71
2021/12/02 13:00:46;;;;;;;27.75;14.90;;;6.80;75.50;;;;;;5059372;28;20471;-71
2021/12/02 13:03:20;;;;;;;20.45;12.77;;;6.80;75.60;;;;;;5072930;28;20096;-71